SSEC Globe Logo

Space Science and Engineering Center

Surface Aviation Observations

KAIG 192055Z AUTO 25006KT 10SM OVC065 01/M08 A3023 RMK AO2
     T00051081=
KAIG 192055Z AUTO 25006KT 10SM OVC065 01/M08 A3023 RMK AO2
     T00051081=
KC29 192055Z AUTO 03008KT 10SM OVC050 03/M06 A3025 RMK AO1
     T00291059=
KC29 192055Z AUTO 03008KT 10SM OVC050 03/M06 A3025 RMK AO1
     T00291059=
KBCK 192055Z AUTO 00000KT 10SM SCT060 01/M03 A3027 RMK AO2
     T00061034=
KBCK 192055Z AUTO 00000KT 10SM SCT060 01/M03 A3027 RMK AO2
     T00061034=
KUBE 192055Z AUTO 21003KT 4SM -SN SCT017 SCT022 OVC029
     00/M05 A3025 RMK AO2=
KUBE 192055Z AUTO 21003KT 4SM -SN SCT017 SCT022 OVC029
     00/M05 A3025 RMK AO2=
KPVB 192055Z AUTO 09004KT 10SM SCT023 BKN028 OVC043 01/M03
     A3024 RMK AO1 T00111028=
KPVB 192055Z AUTO 09004KT 10SM SCT023 BKN028 OVC043 01/M03
     A3024 RMK AO1 T00111028=
KEZS 192055Z AUTO 26005KT 10SM BKN040 OVC046 04/M08 A3026
     RMK AO2 T00401077=
KEZS 192055Z AUTO 26005KT 10SM BKN040 OVC046 04/M08 A3026
     RMK AO2 T00401077=
KARV 192055Z AUTO 22004KT 10SM SCT023 BKN032 OVC047 01/M06
     A3021 RMK AO2 T00111058=
KARV 192055Z AUTO 22004KT 10SM SCT023 BKN032 OVC047 01/M06
     A3021 RMK AO2 T00111058=
KASX 192053Z AUTO 25005KT 10SM BKN055 02/M09 A3025 RMK AO2
     SLP253 T00221094 55010=
KASX 192053Z AUTO 25005KT 10SM BKN055 02/M09 A3025 RMK AO2
     SLP253 T00221094 55010=
KATW 192045Z 27005KT 10SM OVC070 02/M13 A3025=
KATW 192045Z 27005KT 10SM OVC070 02/M13 A3025=
KAUW 192054Z AUTO 18005KT 10SM OVC055 01/M08 A3023 RMK AO2
     SLP256 T00111078 55008=
KAUW 192054Z AUTO 18005KT 10SM OVC055 01/M08 A3023 RMK AO2
     SLP256 T00111078 55008=
KBUU 192055Z AUTO 00000KT 10SM CLR 03/00 A3024 RMK AO2
     T00331001 PWINO=
KBUU 192055Z AUTO 00000KT 10SM CLR 03/00 A3024 RMK AO2
     T00331001 PWINO=
KCLI 192055Z AUTO 25005KT 10SM SCT041 BKN055 OVC065 03/M09
     A3027 RMK AO2 T00261090=
KCLI 192055Z AUTO 25005KT 10SM SCT041 BKN055 OVC065 03/M09
     A3027 RMK AO2 T00261090=
KCMY 192055Z AUTO 00000KT 10SM OVC060 02/M06 A3027 RMK AO2
     T00191065=
KCMY 192055Z AUTO 00000KT 10SM OVC060 02/M06 A3027 RMK AO2
     T00191065=
KCWA 192047Z 25006KT 10SM SCT024 OVC030 01/M06 A3026=
KCWA 192047Z 25006KT 10SM SCT024 OVC030 01/M06 A3026=
KDLL 192055Z AUTO 00000KT 10SM SCT038 OVC065 M01/M03 A3026
     RMK AO2 T10131030=
KDLL 192055Z AUTO 00000KT 10SM SCT038 OVC065 M01/M03 A3026
     RMK AO2 T10131030=
KEAU 192056Z 24004KT 1 1/4SM -SN BKN015 OVC024 00/M03 A3027
     RMK AO2 SLP262 P0000 60000 T00001028 58003=
KEAU 192056Z 24004KT 1 1/4SM -SN BKN015 OVC024 00/M03 A3027
     RMK AO2 SLP262 P0000 60000 T00001028 58003=
KEAU 192049Z 24004KT 1 3/4SM -SN BKN013 BKN018 OVC026 00/M03
     A3027 RMK AO2 P0000 T00001033=
KEFT 192055Z AUTO 02004KT 4SM -SN SCT022 BKN028 OVC035
     01/M03 A3022 RMK AO2 T00131028=
KEFT 192055Z AUTO 02004KT 4SM -SN SCT022 BKN028 OVC035
     01/M03 A3022 RMK AO2 T00131028=
KEGV 192055Z AUTO 25004KT 10SM SCT043 01/M10 A3021 RMK AO2
     T00061101=
KEGV 192055Z AUTO 25004KT 10SM SCT043 01/M10 A3021 RMK AO2
     T00061101=
KENW 192053Z 36003KT 4SM -RA FEW014 OVC020 04/01 A3024 RMK
     AO2 SLP247 P0006 60006 T00440011 50002=
KENW 192053Z 36003KT 4SM -RA FEW014 OVC020 04/01 A3024 RMK
     AO2 SLP247 P0006 60006 T00440011 50002=
KETB 192055Z AUTO 35006KT 10SM BKN065 OVC075 02/M05 A3025
     RMK AO2=
KETB 192055Z AUTO 35006KT 10SM BKN065 OVC075 02/M05 A3025
     RMK AO2=
KFLD 192053Z AUTO 00000KT 10SM BKN050 OVC065 03/M06 A3027
     RMK AO2 SLP261 T00281056 50001=
KFLD 192053Z AUTO 00000KT 10SM BKN050 OVC065 03/M06 A3027
     RMK AO2 SLP261 T00281056 50001=
KGRB 192053Z 26004KT 10SM OVC085 03/M08 A3027 RMK AO2 SLP260
     T00331078 53001=
KGRB 192053Z 26004KT 10SM OVC085 03/M08 A3027 RMK AO2 SLP260
     T00331078 53001=
KHYR 192053Z AUTO 20006KT 10SM FEW037 OVC047 01/M07 A3024
     RMK AO2 SLP258 T00111067 55004=
KHYR 192053Z AUTO 20006KT 10SM FEW037 OVC047 01/M07 A3024
     RMK AO2 SLP258 T00111067 55004=
KISW 192054Z AUTO 10SM OVC065 02/M07 A3026 RMK AO2 SLP262
     T00221072 56003=
KISW 192054Z AUTO 10SM OVC065 02/M07 A3026 RMK AO2 SLP262
     T00221072 56003=
KJVL 192045Z 00000KT 4SM -SN SCT016 BKN020 OVC033 04/M01
     A3024 RMK SNB04=
KJVL 192045Z 00000KT 4SM -SN SCT016 BKN020 OVC033 04/M01
     A3024 RMK SNB04=
KLNL 192055Z AUTO 27004KT 10SM SCT065 BKN090 OVC110 01/M10
     A3022 RMK AO2 T00071100=
KLNL 192055Z AUTO 27004KT 10SM SCT065 BKN090 OVC110 01/M10
     A3022 RMK AO2 T00071100=
KLNR 192056Z AUTO 04004KT 7SM BKN030 BKN035 OVC050 00/M02
     A3026 RMK AO2 SNE49 SLP253 P0001 60001 T00001022 58011=
KLNR 192056Z AUTO 04004KT 7SM BKN030 BKN035 OVC050 00/M02
     A3026 RMK AO2 SNE49 SLP253 P0001 60001 T00001022 58011=
KLNR 192045Z AUTO 05003KT 5SM -SN BR OVC032 00/M02 A3027 RMK
     AO2 P0001 T00001017=
KLSE 192053Z 00000KT 10SM OVC055 03/M07 A3027 RMK AO2 SLP261
     T00331072 55011=
KLSE 192053Z 00000KT 10SM OVC055 03/M07 A3027 RMK AO2 SLP261
     T00331072 55011=
KLUM 192055Z AUTO 20004KT 2 1/2SM -SN OVC013 M01/M03 A3027
     RMK AO2 T10101031=
KLUM 192055Z AUTO 20004KT 2 1/2SM -SN OVC013 M01/M03 A3027
     RMK AO2 T10101031=
KMDZ 192055Z AUTO 22007KT 7SM OVC032 M01/M05 A3024 RMK AO2
     T10071054=
KMDZ 192055Z AUTO 22007KT 7SM OVC032 M01/M05 A3024 RMK AO2
     T10071054=
KMFI 192054Z AUTO 00000KT 10SM OVC041 01/M06 A3025 RMK AO2
     SNE13 SLP263 P0000 60000 T00061056 55004=
KMFI 192054Z AUTO 00000KT 10SM OVC041 01/M06 A3025 RMK AO2
     SNE13 SLP263 P0000 60000 T00061056 55004=
KMKE 192052Z 05010KT 10SM OVC045 05/M03 A3023 RMK AO2 PRESFR
     SLP243 T00501028 58009=
KMKE 192052Z 05010KT 10SM OVC045 05/M03 A3023 RMK AO2 PRESFR
     SLP243 T00501028 58009=
KMRJ 192055Z AUTO 05004KT 10SM SCT024 SCT031 BKN047 02/M05
     A3023 RMK AO2=
KMRJ 192055Z AUTO 05004KT 10SM SCT024 SCT031 BKN047 02/M05
     A3023 RMK AO2=
KMSN 192053Z 02008KT 10SM OVC050 02/M06 A3024 RMK AO2 SLP250
     VIRGA OHD T00221056 58012=
KMSN 192053Z 02008KT 10SM OVC050 02/M06 A3024 RMK AO2 SLP250
     VIRGA OHD T00221056 58012=
KMTW 192056Z AUTO 28005KT 10SM OVC085 03/M07 A3028 RMK AO2
     SLP260 T00281067 53004=
KMTW 192056Z AUTO 28005KT 10SM OVC085 03/M07 A3028 RMK AO2
     SLP260 T00281067 53004=
KMWC 192045Z 35006KT 10SM SCT055 OVC080 04/M06 A3026=
KMWC 192045Z 35006KT 10SM SCT055 OVC080 04/M06 A3026=
KOEO 192055Z AUTO 16005KT 3SM SCT011 BKN020 OVC031 01/M01
     A3030 RMK AO2 T00071008 PWINO=
KOEO 192055Z AUTO 16005KT 3SM SCT011 BKN020 OVC031 01/M01
     A3030 RMK AO2 T00071008 PWINO=
KOSH 192053Z 00000KT 10SM OVC055 02/M07 A3027 RMK AO2 SLP263
     T00221067 50001=
KOSH 192053Z 00000KT 10SM OVC055 02/M07 A3027 RMK AO2 SLP263
     T00221067 50001=
KOVS 192053Z AUTO 03004KT 10SM BKN015 BKN025 OVC055 01/M02
     A3028 RMK AO2 SNE1958 SLP262 P0000 60002 T00111017
     56015=
KOVS 192053Z AUTO 03004KT 10SM BKN015 BKN025 OVC055 01/M02
     A3028 RMK AO2 SNE1958 SLP262 P0000 60002 T00111017
     56015=
KPBH 192055Z AUTO 24005KT 10SM BKN036 OVC042 00/M06 A3023
     RMK AO2 T00001060=
KPBH 192055Z AUTO 24005KT 10SM BKN036 OVC042 00/M06 A3023
     RMK AO2 T00001060=
KPCZ 192055Z AUTO 00000KT 10SM SCT037 SCT048 OVC050 03/M08
     A3028 RMK AO2 T00331076=
KPCZ 192055Z AUTO 00000KT 10SM SCT037 SCT048 OVC050 03/M08
     A3028 RMK AO2 T00331076=
KPDC 192055Z AUTO 00000KT 10SM SCT012 BKN016 OVC048 00/M02
     A3028 RMK AO2 60003 T00031025=
KPDC 192055Z AUTO 00000KT 10SM SCT012 BKN016 OVC048 00/M02
     A3028 RMK AO2 60003 T00031025=
KRAC 192053Z AUTO 02005KT 10SM -RA OVC023 04/00 A3025 RMK
     AO2 RAB18 SLP251 P0001 60001 T00390000 50001=
KRAC 192053Z AUTO 02005KT 10SM -RA OVC023 04/00 A3025 RMK
     AO2 RAB18 SLP251 P0001 60001 T00390000 50001=
KRCX 192055Z AUTO 22003KT 3SM -SN 00/M02 A3027 RMK AO2
     T00001020=
KRCX 192055Z AUTO 22003KT 3SM -SN 00/M02 A3027 RMK AO2
     T00001020=
KRHI 192053Z AUTO 27005KT 10SM FEW042 OVC075 01/M09 A3022
     RMK AO2 SLP254 T00111089 55008=
KRHI 192053Z AUTO 27005KT 10SM FEW042 OVC075 01/M09 A3022
     RMK AO2 SLP254 T00111089 55008=
KRNH 192055Z AUTO 19004KT 4SM -SN SCT009 BKN018 OVC024
     00/M03 A3026 RMK AO2 T00001027=
KRNH 192055Z AUTO 19004KT 4SM -SN SCT009 BKN018 OVC024
     00/M03 A3026 RMK AO2 T00001027=
KRPD 192055Z AUTO 00000KT 3SM -SN SCT017 BKN024 OVC034
     00/M03 A3027 RMK AO2 T10021030=
KRPD 192055Z AUTO 00000KT 3SM -SN SCT017 BKN024 OVC034
     00/M03 A3027 RMK AO2 T10021030=
KRRL 192055Z AUTO 21005KT 10SM SCT041 BKN047 OVC060 01/M07
     A3023 RMK AO2 T00111069 TSNO=
KRRL 192055Z AUTO 21005KT 10SM SCT041 BKN047 OVC060 01/M07
     A3023 RMK AO2 T00111069 TSNO=
KRYV 192055Z AUTO 36004KT 10SM OVC060 02/M05 A3023 RMK AO2
     T00231054=
KRYV 192055Z AUTO 36004KT 10SM OVC060 02/M05 A3023 RMK AO2
     T00231054=
KRZN 192055Z AUTO 21004KT 10SM OVC026 00/M04 A3025 RMK AO2
     T00011041=
KRZN 192055Z AUTO 21004KT 10SM OVC026 00/M04 A3025 RMK AO2
     T00011041=
KSBM 192053Z AUTO 28005KT 10SM OVC075 04/M06 A3027 RMK AO2
     SLP257 T00441056 51004=
KSBM 192053Z AUTO 28005KT 10SM OVC075 04/M06 A3027 RMK AO2
     SLP257 T00441056 51004=
KSTE 192055Z AUTO 00000KT 10SM -DZ BKN034 OVC041 00/M07
     A3026 RMK AO2 T00001070=
KSTE 192055Z AUTO 00000KT 10SM -DZ BKN034 OVC041 00/M07
     A3026 RMK AO2 T00001070=
KSUE 192056Z AUTO 00000KT 10SM BKN080 OVC095 02/M07 A3027
     RMK AO2 SLP257 T00221067 55001 FZRANO=
KSUE 192056Z AUTO 00000KT 10SM BKN080 OVC095 02/M07 A3027
     RMK AO2 SLP257 T00221067 55001 FZRANO=
KSUW 192115Z AUTO 23009KT 10SM BKN043 OVC055 02/M07 A3024
     RMK AO2 T00231073=
KSUW 192055Z AUTO 25005KT 10SM SCT043 OVC055 02/M07 A3024
     RMK AO2 T00241074=
KSUW 192055Z AUTO 25005KT 10SM SCT043 OVC055 02/M07 A3024
     RMK AO2 T00241074=
KTKV 192055Z AUTO 28004KT 10SM SCT037 BKN043 OVC060 00/M08
     A3023 RMK AO2 T00041080 PWINO=
KTKV 192055Z AUTO 28004KT 10SM SCT037 BKN043 OVC060 00/M08
     A3023 RMK AO2 T00041080 PWINO=
KUES 192045Z 34006KT 10SM OVC050 03/M04 A3023=
KUNU 192055Z AUTO 34003KT 10SM SCT065 BKN070 OVC080 02/M06
     A3026 RMK AO2 T00161062=
KUNU 192055Z AUTO 34003KT 10SM SCT065 BKN070 OVC080 02/M06
     A3026 RMK AO2 T00161062=
METAR KVOK 192056Z 04003KT 10SM BKN060 OVC090 02/M06 A3025
     RMK AO2A SLP260 60000 56010=
METAR KVOK 192056Z 04003KT 10SM BKN060 OVC090 02/M06 A3025
     RMK AO2A SLP260 60000 56010=
KY50 192056Z AUTO 34004KT 10SM OVC070 02/M08 A3027 RMK AO2
     SLP261 T00171078 58003 FZRANO $=
KY50 192056Z AUTO 34004KT 10SM OVC070 02/M08 A3027 RMK AO2
     SLP261 T00171078 58003 FZRANO $=
KY51 192055Z AUTO 00000KT 10SM OVC050 01/M05 A3023 RMK AO1
     T00101047=
KY51 192055Z AUTO 00000KT 10SM OVC050 01/M05 A3023 RMK AO1
     T00101047=
KY23 192055Z AUTO 00000KT 2 1/2SM -SN SCT015 OVC033 00/M03
     A3027 RMK AO2 T10021028=
KY23 192055Z AUTO 00000KT 2 1/2SM -SN SCT015 OVC033 00/M03
     A3027 RMK AO2 T10021028=
K3D2 192055Z AUTO 00000KT 10SM BKN090 03/M07 A3023 RMK AO2
     T00261068=
K3D2 192055Z AUTO 00000KT 10SM BKN090 03/M07 A3023 RMK AO2
     T00261068=
KD25 192055Z AUTO 24008KT 10SM BKN042 OVC060 00/M08 A3021
     RMK AO2 T00011079=
KD25 192055Z AUTO 24008KT 10SM BKN042 OVC060 00/M08 A3021
     RMK AO2 T00011079=
K82C 192055Z AUTO 00000KT 10SM OVC065 02/M06 A3025 RMK AO2
     T00151058=
K82C 192055Z AUTO 00000KT 10SM OVC065 02/M06 A3025 RMK AO2
     T00151058=
KOCQ 192055Z AUTO 25003KT 10SM SCT075 OVC085 03/M07 A3026
     RMK AO1 T00321074=
KOCQ 192055Z AUTO 25003KT 10SM SCT075 OVC085 03/M07 A3026
     RMK AO1 T00321074=
KC35 192055Z AUTO 00000KT 10SM BKN060 BKN070 OVC085 00/M03
     A3025 RMK AO2 T10041028 PWINO=
KC35 192055Z AUTO 00000KT 10SM BKN060 BKN070 OVC085 00/M03
     A3025 RMK AO2 T10041028 PWINO=
KOLG 192055Z AUTO 21006KT 10SM BKN032 BKN038 OVC048 01/M06
     A3024 RMK AO1=
KOLG 192055Z AUTO 21006KT 10SM BKN032 BKN038 OVC048 01/M06
     A3024 RMK AO1=
K2P2 192055Z AUTO 19003KT 10SM OVC100 03/M06 A3024 RMK AO2
     T00281056=
K2P2 192055Z AUTO 19003KT 10SM OVC100 03/M06 A3024 RMK AO2
     T00281056=
KDBQ 192101Z 03007KT 3SM -SN BR BKN009 OVC020 00/M02 A3023
     RMK AO2 P0000 T00001017=
KDBQ 192053Z 02006KT 1 1/4SM R36/5000VP6000FT -SN BR BKN006
     OVC020 00/M02 A3023 RMK AO2 SLP251 P0001 60003
     T00001017 56021=
KDBQ 192053Z 02006KT 1 1/4SM R36/5000VP6000FT -SN BR BKN006
     OVC020 00/M02 A3023 RMK AO2 SLP251 P0001 60003
     T00001017 56021=
KRST 192054Z 08003KT 8SM FEW023 OVC055 01/M04 A3024 RMK AO2
     SNB45E54 SLP256 P0000 60000 T00111044 56010=
KRST 192054Z 08003KT 8SM FEW023 OVC055 01/M04 A3024 RMK AO2
     SNB45E54 SLP256 P0000 60000 T00111044 56010=
KMSP 192056Z 15006KT 1 3/4SM -SN BR SCT012 BKN016 OVC025
     01/M01 A3027 RMK AO2 TWR VIS 2 1/2 P0000 T00061011=
KMSP 192053Z 16005KT 2SM -SN BR SCT012 OVC025 01/M01 A3027
     RMK AO2 TWR VIS 2 1/2 SLP261 P0000 60003 T00061011
     56005=
KMSP 192053Z 16005KT 2SM -SN BR SCT012 OVC025 01/M01 A3027
     RMK AO2 TWR VIS 2 1/2 SLP261 P0000 60003 T00061011
     56005=
KRFD 192054Z 01008KT 2 1/2SM -SN BR BKN005 OVC022 02/M01
     A3026 RMK AO2 SLP253 P0002 60003 T00171006 57011=
KRFD 192054Z 01008KT 2 1/2SM -SN BR BKN005 OVC022 02/M01
     A3026 RMK AO2 SLP253 P0002 60003 T00171006 57011=
KRFD 192052Z 36008KT 2SM -SN BR BKN005 OVC022 02/M01 A3026=
KRFD 192052Z 36008KT 2SM -SN BR BKN005 OVC022 02/M01 A3026
     RMK AO2 P0002=
KORD 192051Z 02013KT 4SM -RA BR FEW019 BKN025 OVC035 06/03
     A3021 RMK AO2 RAB16 SLP235 P0003 60003 T00610028 50003
     $=
KORD 192051Z 02013KT 4SM -RA BR FEW019 BKN025 OVC035 06/03
     A3021 RMK AO2 RAB16 SLP235 P0003 60003 T00610028 50003
     $=